createdAt,value
2023-03-03T00:01:25.420Z,100.00
2023-03-03T00:03:53.516Z,100.00
2023-03-03T00:06:21.214Z,100.00
2023-03-03T00:08:53.393Z,100.00
2023-03-03T00:11:20.600Z,100.00
2023-03-03T00:13:51.678Z,100.00
2023-03-03T00:16:31.280Z,100.00
2023-03-03T00:19:01.992Z,100.00
2023-03-03T00:21:41.913Z,100.00
2023-03-03T00:24:18.041Z,100.00
2023-03-03T00:26:55.571Z,100.00
2023-03-03T00:29:36.058Z,99.73
2023-03-03T00:32:22.986Z,99.67
2023-03-03T00:34:53.071Z,99.61
2023-03-03T00:37:29.005Z,99.33
2023-03-03T00:40:14.878Z,99.12
2023-03-03T00:42:52.076Z,99.22
2023-03-03T00:45:24.833Z,98.74
2023-03-03T00:47:54.638Z,98.61
2023-03-03T00:50:28.565Z,98.38
2023-03-03T00:53:03.306Z,98.15
2023-03-03T00:55:32.738Z,98.05
2023-03-03T00:57:59.921Z,97.75
2023-03-03T01:00:34.291Z,97.53
2023-03-03T01:03:09.606Z,97.34
2023-03-03T01:05:37.069Z,97.44
2023-03-03T01:08:05.042Z,96.96
2023-03-03T01:10:36.306Z,96.81
2023-03-03T01:13:04.998Z,96.51
2023-03-03T01:15:34.408Z,96.18
2023-03-03T01:18:04.191Z,95.88
2023-03-03T01:20:33.561Z,95.64
2023-03-03T01:23:00.982Z,95.55
2023-03-03T01:25:28.679Z,95.37
2023-03-03T01:27:56.150Z,95.21
2023-03-03T01:30:24.351Z,95.04
2023-03-03T01:32:54.536Z,94.93
2023-03-03T01:35:24.496Z,94.92
2023-03-03T01:37:51.952Z,94.72
2023-03-03T01:40:29.387Z,94.50
2023-03-03T01:42:59.955Z,94.50
2023-03-03T01:45:32.746Z,94.30
2023-03-03T01:48:06.788Z,94.04
2023-03-03T01:50:53.153Z,93.72
2023-03-03T01:53:27.744Z,93.80
2023-03-03T01:55:57.836Z,93.50
2023-03-03T01:58:36.455Z,93.55
2023-03-03T02:01:07.482Z,93.39
2023-03-03T02:03:37.423Z,93.27
2023-03-03T02:06:09.558Z,93.16
2023-03-03T02:09:04.030Z,93.18
2023-03-03T02:11:36.551Z,92.87
2023-03-03T02:14:08.860Z,92.52
2023-03-03T02:16:36.314Z,92.26
2023-03-03T02:19:12.274Z,92.13
2023-03-03T02:21:41.600Z,91.99
2023-03-03T02:24:33.987Z,91.78
2023-03-03T02:27:02.739Z,91.88
2023-03-03T02:29:30.711Z,91.76
2023-03-03T02:31:58.859Z,91.64
2023-03-03T02:34:26.413Z,91.42
2023-03-03T02:36:56.078Z,91.29
2023-03-03T02:39:29.997Z,91.33
2023-03-03T02:42:26.804Z,90.91
2023-03-03T02:44:56.123Z,90.79
2023-03-03T02:47:26.104Z,90.75
2023-03-03T02:49:53.431Z,90.45
2023-03-03T02:52:20.745Z,90.26
2023-03-03T02:54:49.821Z,90.35
2023-03-03T02:57:17.112Z,90.33
2023-03-03T02:59:48.547Z,90.08
2023-03-03T03:02:19.339Z,90.12
2023-03-03T03:04:49.348Z,89.83
2023-03-03T03:07:21.157Z,89.77
2023-03-03T03:09:50.590Z,89.21
2023-03-03T03:12:19.315Z,89.41
2023-03-03T03:14:48.642Z,89.31
2023-03-03T03:17:16.134Z,89.36
2023-03-03T03:19:46.321Z,89.25
2023-03-03T03:22:13.699Z,88.93
2023-03-03T03:24:43.516Z,88.75
2023-03-03T03:27:11.052Z,88.74
2023-03-03T03:29:38.809Z,88.54
2023-03-03T03:32:06.425Z,88.50
2023-03-03T03:34:33.871Z,88.54
2023-03-03T03:37:01.117Z,88.37
2023-03-03T03:39:34.088Z,88.22
2023-03-03T03:42:01.881Z,88.14
2023-03-03T03:44:29.074Z,88.17
2023-03-03T03:46:58.658Z,88.05
2023-03-03T03:49:26.541Z,88.02
2023-03-03T03:51:58.712Z,88.06
2023-03-03T03:54:29.381Z,88.03
2023-03-03T03:56:56.852Z,87.98
2023-03-03T03:59:24.527Z,87.89
2023-03-03T04:01:59.092Z,87.86
2023-03-03T04:04:41.490Z,88.95
2023-03-03T04:07:11.720Z,90.77
2023-03-03T04:09:46.496Z,90.01
2023-03-03T04:12:18.041Z,89.07
2023-03-03T04:14:51.523Z,88.70
2023-03-03T04:17:27.849Z,88.38
2023-03-03T04:19:56.944Z,88.17
2023-03-03T04:22:27.524Z,87.91
2023-03-03T04:24:59.455Z,87.82
2023-03-03T04:27:30.053Z,87.79
2023-03-03T04:30:02.185Z,87.52
2023-03-03T04:32:35.860Z,87.40
2023-03-03T04:35:12.309Z,87.32
2023-03-03T04:37:43.139Z,89.55
2023-03-03T04:40:11.819Z,89.86
2023-03-03T04:42:40.605Z,91.16
2023-03-03T04:45:10.148Z,92.18
2023-03-03T04:47:42.673Z,93.41
2023-03-03T04:50:11.527Z,93.87
2023-03-03T04:52:41.735Z,94.57
2023-03-03T04:55:10.675Z,95.40
2023-03-03T04:57:40.322Z,95.53
2023-03-03T05:00:15.754Z,95.97
2023-03-03T05:02:43.876Z,96.49
2023-03-03T05:05:11.577Z,96.98
2023-03-03T05:07:41.702Z,98.22
2023-03-03T05:10:10.137Z,98.29
2023-03-03T05:12:37.400Z,99.35
2023-03-03T05:15:07.737Z,100.00
2023-03-03T05:17:35.601Z,100.00
2023-03-03T05:20:05.527Z,99.70
2023-03-03T05:22:32.898Z,99.70
2023-03-03T05:25:00.309Z,99.75
2023-03-03T05:27:27.783Z,100.00
2023-03-03T05:29:59.711Z,100.00
2023-03-03T05:32:29.416Z,100.00
2023-03-03T05:34:56.554Z,100.00
2023-03-03T05:37:24.543Z,97.97
2023-03-03T05:39:52.013Z,95.04
2023-03-03T05:42:24.081Z,93.27
2023-03-03T05:44:51.416Z,92.56
2023-03-03T05:47:18.608Z,92.13
2023-03-03T05:49:45.828Z,92.16
2023-03-03T05:52:13.064Z,91.91
2023-03-03T05:54:40.282Z,91.82
2023-03-03T05:57:07.717Z,91.69
2023-03-03T05:59:37.466Z,91.51
2023-03-03T06:02:07.717Z,91.20
2023-03-03T06:04:34.972Z,90.86
2023-03-03T06:07:02.364Z,90.83
2023-03-03T06:09:32.499Z,90.34
2023-03-03T06:12:00.058Z,90.37
2023-03-03T06:14:29.504Z,90.52
2023-03-03T06:16:59.152Z,90.48
2023-03-03T06:19:27.512Z,91.04
2023-03-03T06:21:55.132Z,92.16
2023-03-03T06:24:25.242Z,92.40
2023-03-03T06:26:52.724Z,93.59
2023-03-03T06:29:19.975Z,94.53
2023-03-03T06:31:49.660Z,95.57
2023-03-03T06:34:16.924Z,96.09
2023-03-03T06:36:46.391Z,96.48
2023-03-03T06:39:13.595Z,96.57
2023-03-03T06:41:40.781Z,97.07
2023-03-03T06:44:08.953Z,97.20
2023-03-03T06:46:36.109Z,97.58
2023-03-03T06:49:03.773Z,98.14
2023-03-03T06:51:36.383Z,98.35
2023-03-03T06:54:12.735Z,98.38
2023-03-03T06:56:46.545Z,98.71
2023-03-03T06:59:16.384Z,98.61
2023-03-03T07:01:48.545Z,98.41
2023-03-03T07:04:35.790Z,98.97
2023-03-03T07:07:21.451Z,98.97
2023-03-03T07:09:51.639Z,98.94
2023-03-03T07:12:27.694Z,98.77
2023-03-03T07:15:23.764Z,99.08
2023-03-03T07:17:58.166Z,98.89
2023-03-03T07:20:39.762Z,99.39
2023-03-03T07:23:29.735Z,98.77
2023-03-03T07:25:57.474Z,99.30
2023-03-03T07:28:29.866Z,99.56
2023-03-03T07:30:58.215Z,99.50
2023-03-03T07:33:29.674Z,99.07
2023-03-03T07:35:59.271Z,99.25
2023-03-03T07:38:41.172Z,99.36
2023-03-03T07:41:17.200Z,99.61
2023-03-03T07:43:54.408Z,99.30
2023-03-03T07:46:28.775Z,99.47
2023-03-03T07:48:57.887Z,99.37
2023-03-03T07:51:36.782Z,99.25
2023-03-03T07:54:28.615Z,99.52
2023-03-03T07:57:02.309Z,99.95
2023-03-03T07:59:38.093Z,99.82
2023-03-03T08:02:26.323Z,100.00
2023-03-03T08:04:54.864Z,99.66
2023-03-03T08:07:23.316Z,99.90
2023-03-03T08:09:59.529Z,100.00
2023-03-03T08:12:47.185Z,99.70
2023-03-03T08:15:20.223Z,99.32
2023-03-03T08:17:52.111Z,99.88
2023-03-03T08:20:44.917Z,100.00
2023-03-03T08:23:17.888Z,99.86
2023-03-03T08:25:45.693Z,99.73
2023-03-03T08:28:14.061Z,100.00
2023-03-03T08:30:44.489Z,99.55
2023-03-03T08:33:14.889Z,100.00
2023-03-03T08:35:45.396Z,100.00
2023-03-03T08:38:19.908Z,99.85
2023-03-03T08:40:48.216Z,99.21
2023-03-03T08:43:21.593Z,99.53
2023-03-03T08:45:54.075Z,100.00
2023-03-03T08:48:21.382Z,99.50
2023-03-03T08:50:48.677Z,93.95
2023-03-03T08:53:19.985Z,88.36
2023-03-03T08:55:49.734Z,84.56
2023-03-03T08:58:30.412Z,82.03
2023-03-03T09:01:02.238Z,79.88
2023-03-03T09:03:29.976Z,78.24
2023-03-03T09:05:59.462Z,77.10
2023-03-03T09:08:29.224Z,75.90
2023-03-03T09:11:02.273Z,75.37
2023-03-03T09:13:31.350Z,74.99
2023-03-03T09:16:00.903Z,74.41
2023-03-03T09:18:36.525Z,74.19
2023-03-03T09:21:23.734Z,73.79
2023-03-03T09:23:56.663Z,73.47
2023-03-03T09:26:28.583Z,73.38
2023-03-03T09:29:19.072Z,73.49
2023-03-03T09:31:49.256Z,74.73
2023-03-03T09:34:36.880Z,75.05
2023-03-03T09:37:28.806Z,76.10
2023-03-03T09:40:00.306Z,76.30
2023-03-03T09:42:42.903Z,77.27
2023-03-03T09:45:19.754Z,78.61
2023-03-03T09:48:19.195Z,80.17
2023-03-03T09:51:26.855Z,81.75
2023-03-03T09:54:00.964Z,83.21
2023-03-03T09:56:37.241Z,84.43
2023-03-03T09:59:19.803Z,85.59
2023-03-03T10:02:11.434Z,86.82
2023-03-03T10:05:00.400Z,88.04
2023-03-03T10:07:39.866Z,88.64
2023-03-03T10:10:31.033Z,89.13
2023-03-03T10:13:20.507Z,89.42
2023-03-03T10:16:40.157Z,89.69
2023-03-03T10:19:24.150Z,90.24
2023-03-03T10:22:05.564Z,90.76
2023-03-03T10:24:45.298Z,91.73
2023-03-03T10:27:40.530Z,92.67
2023-03-03T10:30:39.812Z,93.27
2023-03-03T10:33:17.746Z,94.33
2023-03-03T10:36:06.229Z,94.71
2023-03-03T10:38:49.798Z,95.35
2023-03-03T10:41:43.524Z,95.81
2023-03-03T10:44:44.669Z,96.28
2023-03-03T10:47:15.335Z,96.68
2023-03-03T10:50:01.199Z,96.92
2023-03-03T10:52:34.077Z,97.46
2023-03-03T10:55:36.408Z,97.45
2023-03-03T10:58:28.737Z,97.73
2023-03-03T11:01:26.869Z,97.80
2023-03-03T11:04:18.680Z,97.97
2023-03-03T11:07:16.334Z,98.32
2023-03-03T11:10:06.141Z,98.58
2023-03-03T11:12:39.467Z,98.64
2023-03-03T11:15:40.404Z,98.94
2023-03-03T11:18:35.672Z,99.21
2023-03-03T11:21:20.998Z,99.69
2023-03-03T11:24:12.329Z,99.83
2023-03-03T11:26:59.604Z,99.70
2023-03-03T11:29:39.410Z,100.00
2023-03-03T11:32:28.311Z,99.96
2023-03-03T11:35:23.389Z,100.00
2023-03-03T11:38:03.030Z,100.00
2023-03-03T11:41:02.594Z,100.00
2023-03-03T11:43:37.742Z,100.00
2023-03-03T11:46:11.533Z,100.00
2023-03-03T11:48:59.230Z,100.00
2023-03-03T11:51:40.756Z,100.00
2023-03-03T11:54:18.546Z,100.00
2023-03-03T11:56:47.464Z,100.00
2023-03-03T11:59:30.421Z,100.00
2023-03-03T12:02:16.304Z,100.00
2023-03-03T12:05:07.769Z,100.00
2023-03-03T12:08:21.378Z,100.00
2023-03-03T12:11:27.238Z,100.00
2023-03-03T12:14:05.876Z,100.00
2023-03-03T12:17:03.609Z,100.00
2023-03-03T12:19:31.110Z,100.00
2023-03-03T12:22:04.948Z,100.00
2023-03-03T12:24:54.033Z,97.32
2023-03-03T12:27:32.325Z,97.69
2023-03-03T12:30:13.135Z,98.06
2023-03-03T12:33:19.241Z,98.14
2023-03-03T12:36:04.523Z,98.75
2023-03-03T12:38:46.649Z,98.91
2023-03-03T12:41:27.313Z,99.28
2023-03-03T12:44:22.084Z,99.34
2023-03-03T12:47:23.405Z,99.32
2023-03-03T12:50:16.871Z,99.96
2023-03-03T12:53:10.346Z,100.00
2023-03-03T12:55:49.330Z,100.00
2023-03-03T12:58:51.440Z,100.00
2023-03-03T13:01:18.513Z,100.00
2023-03-03T13:03:58.197Z,100.00
2023-03-03T13:06:47.696Z,100.00
2023-03-03T13:09:42.207Z,100.00
2023-03-03T13:12:25.307Z,100.00
2023-03-03T13:15:32.199Z,100.00
2023-03-03T13:18:15.820Z,100.00
2023-03-03T13:20:51.074Z,100.00
2023-03-03T13:23:21.294Z,100.00
2023-03-03T13:25:55.915Z,100.00
2023-03-03T13:28:40.748Z,100.00
2023-03-03T13:31:19.358Z,100.00
2023-03-03T13:33:58.727Z,100.00
2023-03-03T13:36:46.052Z,100.00
2023-03-03T13:39:28.524Z,100.00
2023-03-03T13:42:06.046Z,100.00
2023-03-03T13:44:42.580Z,100.00
2023-03-03T13:47:16.982Z,100.00
2023-03-03T13:49:56.198Z,100.00
2023-03-03T13:52:30.679Z,100.00
2023-03-03T13:55:12.817Z,100.00
2023-03-03T13:57:39.943Z,100.00
2023-03-03T14:00:25.877Z,100.00
2023-03-03T14:03:06.075Z,100.00
2023-03-03T14:05:50.140Z,100.00
2023-03-03T14:08:43.238Z,100.00
2023-03-03T14:11:19.486Z,100.00
2023-03-03T14:13:58.889Z,100.00
2023-03-03T14:16:53.467Z,100.00
2023-03-03T14:19:42.032Z,100.00
2023-03-03T14:22:30.076Z,100.00
2023-03-03T14:25:02.552Z,100.00
2023-03-03T14:27:35.885Z,100.00
2023-03-03T14:30:22.963Z,100.00
2023-03-03T14:33:09.304Z,100.00
2023-03-03T14:36:04.236Z,100.00
2023-03-03T14:38:31.699Z,100.00
2023-03-03T14:41:11.269Z,100.00
2023-03-03T14:43:41.501Z,100.00
2023-03-03T14:46:27.690Z,100.00
2023-03-03T14:49:25.938Z,100.00
2023-03-03T14:52:21.252Z,100.00
2023-03-03T14:55:00.821Z,100.00
2023-03-03T14:57:51.272Z,100.00
2023-03-03T15:00:24.103Z,100.00
2023-03-03T15:03:26.837Z,100.00
2023-03-03T15:05:58.099Z,100.00
2023-03-03T15:08:34.438Z,100.00
2023-03-03T15:11:28.197Z,100.00
2023-03-03T15:14:14.858Z,100.00
2023-03-03T15:16:45.112Z,100.00
2023-03-03T15:19:44.464Z,100.00
2023-03-03T15:22:48.082Z,100.00
2023-03-03T15:25:34.789Z,100.00
2023-03-03T15:28:22.530Z,100.00
2023-03-03T15:31:26.597Z,100.00
2023-03-03T15:34:23.083Z,100.00
2023-03-03T15:37:11.032Z,100.00
2023-03-03T15:40:21.746Z,100.00
2023-03-03T15:42:57.177Z,100.00
2023-03-03T15:45:34.044Z,100.00
2023-03-03T15:48:13.805Z,100.00
2023-03-03T15:51:25.734Z,100.00
2023-03-03T15:54:18.001Z,100.00
2023-03-03T15:56:58.337Z,100.00
2023-03-03T15:59:45.602Z,100.00
2023-03-03T16:02:28.185Z,100.00
2023-03-03T16:05:36.078Z,100.00
2023-03-03T16:08:09.248Z,100.00
2023-03-03T16:10:59.620Z,100.00
2023-03-03T16:14:08.321Z,100.00
2023-03-03T16:16:47.081Z,100.00
2023-03-03T16:19:23.785Z,100.00
2023-03-03T16:22:08.112Z,100.00
2023-03-03T16:24:47.285Z,100.00
2023-03-03T16:27:26.586Z,100.00
2023-03-03T16:29:57.261Z,100.00
2023-03-03T16:32:34.454Z,100.00
2023-03-03T16:35:26.187Z,100.00
2023-03-03T16:38:05.794Z,100.00
2023-03-03T16:40:38.653Z,100.00
2023-03-03T16:43:20.288Z,100.00
2023-03-03T16:45:48.456Z,100.00
2023-03-03T16:48:59.645Z,100.00
2023-03-03T16:51:43.665Z,100.00
2023-03-03T16:54:17.068Z,100.00
2023-03-03T16:56:49.076Z,100.00
2023-03-03T16:59:37.934Z,100.00
2023-03-03T17:02:29.462Z,100.00
2023-03-03T17:05:11.833Z,100.00
2023-03-03T17:07:38.964Z,100.00
2023-03-03T17:10:27.750Z,100.00
2023-03-03T17:13:00.895Z,100.00
2023-03-03T17:15:59.701Z,100.00
2023-03-03T17:18:38.473Z,100.00
2023-03-03T17:21:28.792Z,100.00
2023-03-03T17:32:24.696Z,100.00
2023-03-03T17:35:28.388Z,100.00
2023-03-03T17:38:30.621Z,100.00
2023-03-03T17:41:06.678Z,100.00
2023-03-03T17:44:00.733Z,100.00
2023-03-03T17:46:54.137Z,100.00
2023-03-03T17:49:35.781Z,100.00
2023-03-03T17:52:08.989Z,100.00
2023-03-03T17:54:53.882Z,100.00
2023-03-03T17:57:51.315Z,100.00
2023-03-03T18:00:41.583Z,100.00
2023-03-03T18:03:17.934Z,100.00
2023-03-03T18:06:06.629Z,100.00
2023-03-03T18:09:14.127Z,100.00
2023-03-03T18:12:07.623Z,100.00
2023-03-03T18:15:06.815Z,100.00
2023-03-03T18:17:53.809Z,100.00
2023-03-03T18:20:47.798Z,100.00
2023-03-03T18:23:24.691Z,100.00
2023-03-03T18:25:55.840Z,100.00
2023-03-03T18:28:43.319Z,100.00
2023-03-03T18:31:46.617Z,100.00
2023-03-03T18:34:20.131Z,100.00
2023-03-03T18:36:57.641Z,100.00
2023-03-03T18:39:41.138Z,100.00
2023-03-03T18:42:11.304Z,100.00
2023-03-03T18:44:38.984Z,100.00
2023-03-03T18:47:07.650Z,100.00
2023-03-03T18:49:47.405Z,100.00
2023-03-03T18:53:02.759Z,100.00
2023-03-03T18:55:49.961Z,100.00
2023-03-03T18:58:17.285Z,100.00
2023-03-03T19:00:51.749Z,100.00
2023-03-03T19:03:29.194Z,100.00
2023-03-03T19:06:00.207Z,100.00
2023-03-03T19:08:45.284Z,100.00
2023-03-03T19:11:32.383Z,100.00
2023-03-03T19:14:15.414Z,100.00
2023-03-03T19:16:49.578Z,100.00
2023-03-03T19:19:24.750Z,100.00
2023-03-03T19:22:22.836Z,100.00
2023-03-03T19:25:08.892Z,100.00
2023-03-03T19:27:44.691Z,100.00
2023-03-03T19:30:39.465Z,100.00
2023-03-03T19:33:17.733Z,100.00
2023-03-03T19:36:03.459Z,100.00
2023-03-03T19:38:52.429Z,100.00
2023-03-03T19:41:38.260Z,100.00
2023-03-03T19:44:42.953Z,100.00
2023-03-03T19:47:31.730Z,100.00
2023-03-03T19:50:19.614Z,100.00
2023-03-03T19:53:01.118Z,100.00
2023-03-03T19:55:54.668Z,100.00
2023-03-03T19:58:53.980Z,100.00
2023-03-03T20:01:41.627Z,100.00
2023-03-03T20:04:38.350Z,100.00
2023-03-03T20:07:33.689Z,100.00
2023-03-03T20:10:16.497Z,100.00
2023-03-03T20:12:50.615Z,100.00
2023-03-03T20:15:24.243Z,100.00
2023-03-03T20:18:10.113Z,100.00
2023-03-03T20:20:47.344Z,100.00
2023-03-03T20:23:23.662Z,100.00
2023-03-03T20:26:03.145Z,100.00
2023-03-03T20:28:42.433Z,100.00
2023-03-03T20:31:35.610Z,100.00
2023-03-03T20:34:31.413Z,100.00
2023-03-03T20:37:25.497Z,100.00
2023-03-03T20:40:13.462Z,100.00
2023-03-03T20:42:52.853Z,100.00
2023-03-03T20:45:38.793Z,100.00
2023-03-03T20:48:44.331Z,100.00
2023-03-03T20:51:46.301Z,100.00
2023-03-03T20:54:38.658Z,100.00
2023-03-03T20:57:20.949Z,100.00
2023-03-03T20:59:51.473Z,100.00
2023-03-03T21:02:42.407Z,100.00
2023-03-03T21:05:16.325Z,100.00
2023-03-03T21:07:55.743Z,100.00
2023-03-03T21:10:26.551Z,100.00
2023-03-03T21:12:56.423Z,100.00
2023-03-03T21:15:35.759Z,100.00
2023-03-03T21:18:24.406Z,100.00
2023-03-03T21:20:51.809Z,100.00
2023-03-03T21:23:22.878Z,100.00
2023-03-03T21:25:54.090Z,100.00
2023-03-03T21:28:22.860Z,100.00
2023-03-03T21:31:08.451Z,100.00
2023-03-03T21:33:58.113Z,100.00
2023-03-03T21:36:34.424Z,100.00
2023-03-03T21:39:18.722Z,100.00
2023-03-03T21:42:00.393Z,100.00
2023-03-03T21:44:35.871Z,100.00
2023-03-03T21:47:05.439Z,100.00
2023-03-03T21:49:32.883Z,100.00
2023-03-03T21:52:04.931Z,100.00
2023-03-03T21:54:34.679Z,100.00
2023-03-03T21:57:07.440Z,100.00
2023-03-03T21:59:34.634Z,99.67
2023-03-03T22:02:05.799Z,99.66
2023-03-03T22:04:33.524Z,99.29
2023-03-03T22:07:01.330Z,99.46
2023-03-03T22:09:28.793Z,99.47
2023-03-03T22:11:58.453Z,99.58
2023-03-03T22:14:27.705Z,99.44
2023-03-03T22:16:55.025Z,99.32
2023-03-03T22:19:22.545Z,99.07
2023-03-03T22:21:50.296Z,98.75
2023-03-03T22:24:18.120Z,99.07
2023-03-03T22:26:45.539Z,99.13
2023-03-03T22:29:12.803Z,98.97
2023-03-03T22:31:40.429Z,98.95
2023-03-03T22:34:07.883Z,98.73
2023-03-03T22:36:35.023Z,98.45
2023-03-03T22:39:02.454Z,98.44
2023-03-03T22:41:32.029Z,98.34
2023-03-03T22:43:59.227Z,98.17
2023-03-03T22:46:29.053Z,97.95
2023-03-03T22:48:58.880Z,97.92
2023-03-03T22:51:28.384Z,98.01
2023-03-03T22:53:56.052Z,97.86
2023-03-03T22:56:23.934Z,97.89
2023-03-03T22:58:51.160Z,97.77
2023-03-03T23:01:19.018Z,97.67
2023-03-03T23:03:46.210Z,97.71
2023-03-03T23:06:15.717Z,97.53
2023-03-03T23:08:45.340Z,97.67
2023-03-03T23:11:12.497Z,97.77
2023-03-03T23:13:39.788Z,97.55
2023-03-03T23:16:09.371Z,97.41
2023-03-03T23:18:36.778Z,97.28
2023-03-03T23:21:06.669Z,97.04
2023-03-03T23:23:34.359Z,97.03
2023-03-03T23:26:01.763Z,96.82
2023-03-03T23:28:28.857Z,96.63
2023-03-03T23:30:58.781Z,96.96
2023-03-03T23:33:26.280Z,96.78
2023-03-03T23:35:53.983Z,96.75
2023-03-03T23:38:21.532Z,96.72
2023-03-03T23:40:48.644Z,96.87
2023-03-03T23:43:18.089Z,96.51
2023-03-03T23:45:45.760Z,96.62
2023-03-03T23:48:15.482Z,96.31
2023-03-03T23:50:45.404Z,96.15
2023-03-03T23:53:12.867Z,96.10
2023-03-03T23:55:40.261Z,96.11
2023-03-03T23:58:07.452Z,95.90
